Flight Track Log - Related Links

Times and Time Zones

All times are in EDT time to prevent confusion due to time zone crossing. See the DLH423 flight status page for this flight to view local times or setup timezone preferences in your user account.

Time Position Orientation Groundspeed Altitude Reporting Facility
EDT Latitude Longitude Course Direction KTS MPH feet Rate Location/Type
Wed 04:57:07 PM 42.3800 -70.9980 21° North 153 176 600  Level FlightAware ADS-B
Wed 04:57:32 PM 42.3980 -70.9880 22° Northeast 178 205 1,400 1,560 Climbing FlightAware ADS-B
Wed 04:57:57 PM 42.4220 -70.9760 20° North 225 259 1,900 1,333 Climbing FlightAware ADS-B
Wed 04:58:17 PM 42.4400 -70.9620 30° Northeast 248 285 2,400 1,371 Climbing FlightAware ADS-B
Wed 04:58:32 PM 42.4500 -70.9410 57° Northeast 272 313 2,700 1,600 Climbing FlightAware ADS-B
Wed 04:58:47 PM 42.4540 -70.9160 78° East 281 323 3,200 3,150 Climbing FlightAware ADS-B
Wed 04:59:12 PM 42.4580 -70.8710 83° East 279 321 4,800 3,273 Climbing FlightAware ADS-B
Wed 04:59:42 PM 42.4490 -70.8210 104° East 299 344 6,200 2,509 Climbing FlightAware ADS-B
Wed 05:00:07 PM 42.4330 -70.7760 116° Southeast 310 357 7,100 1,964 Climbing FlightAware ADS-B
Wed 05:00:37 PM 42.4140 -70.7230 116° Southeast 315 362 8,000 2,200 Climbing FlightAware ADS-B
Wed 05:01:07 PM 42.3940 -70.6670 116° Southeast 331 381 9,300 2,314 Climbing FlightAware ADS-B
Wed 05:01:47 PM 42.3690 -70.5890 113° Southeast 361 415 10,700 1,875 Climbing FlightAware ADS-B
Wed 05:02:27 PM 42.3490 -70.4960 106° East 408 470 11,800 1,906 Climbing FlightAware ADS-B
Wed 05:03:12 PM 42.3250 -70.3820 106° East 441 507 13,400 2,541 Climbing FlightAware ADS-B
Wed 05:03:52 PM 42.3020 -70.2720 106° East 458 527 15,400 2,925 Climbing FlightAware ADS-B
Wed 05:04:32 PM 42.2780 -70.1600 106° East 474 545 17,300 2,775 Climbing FlightAware ADS-B
Wed 05:05:12 PM 42.2590 -70.0420 102° East 483 556 19,100 2,471 Climbing FlightAware ADS-B
Wed 05:05:57 PM 42.2410 -69.9070 100° East 502 578 20,800 2,133 Climbing FlightAware ADS-B
Wed 05:06:42 PM 42.2500 -69.7690 85° East 499 574 22,300 2,047 Climbing FlightAware ADS-B
Wed 05:07:22 PM 42.2890 -69.6520 66° East 508 585 23,700 2,118 Climbing FlightAware ADS-B
Wed 05:08:07 PM 42.3330 -69.5230 65° Northeast 515 593 25,300 2,188 Climbing FlightAware ADS-B
Wed 05:08:47 PM 42.3740 -69.4030 65° Northeast 523 602 26,800 2,175 Climbing FlightAware ADS-B
Wed 05:09:27 PM 42.4140 -69.2830 66° East 528 608 28,200 1,906 Climbing FlightAware ADS-B
Wed 05:10:12 PM 42.4580 -69.1510 66° East 533 613 29,500 2,000 Climbing FlightAware ADS-B
Wed 05:10:42 PM 42.4880 -69.0630 65° Northeast 528 608 30,700 2,118 Climbing FlightAware ADS-B
Wed 05:11:37 PM 42.5440 -68.8940 66° East 526 605 32,500 1,800 Climbing FlightAware ADS-B
Wed 05:12:12 PM 42.5790 -68.7870 66° East 525 604 33,400 1,516 Climbing FlightAware ADS-B
Wed 05:13:12 PM 42.6360 -68.6140 66° East 525 604 34,900 873 Climbing FlightAware ADS-B
Wed 05:14:02 PM 42.6840 -68.4680 66° East 525 604 35,000 60 Climbing FlightAware ADS-B
Wed 05:14:52 PM 42.7260 -68.3400 66° East 525 604 35,000  Level FlightAware ADS-B
Wed 05:16:57 PM 42.8600 -67.9250 66° East 534 615 35,000  Level FlightAware ADS-B
Wed 05:17:37 PM 42.8990 -67.8010 67° East 538 619 35,000  Level FlightAware ADS-B
Wed 05:18:07 PM 42.9280 -67.7090 67° East 538 619 35,000  Level FlightAware ADS-B
Wed 05:18:47 PM 42.9680 -67.5840 66° East 540 621 35,000  Level FlightAware ADS-B
Wed 05:19:52 PM 43.0280 -67.3910 67° East 544 626 35,000  Level FlightAware ADS-B
Wed 05:20:37 PM 43.0710 -67.2600 66° East 544 626 35,000  Level FlightAware ADS-B
Wed 05:21:22 PM 43.1170 -67.1080 67° East 544 626 35,000  Level FlightAware ADS-B
Wed 05:22:12 PM 43.1730 -66.9370 66° East 540 621 35,000  Level FlightAware ADS-B
Wed 05:23:02 PM 43.2180 -66.8050 65° Northeast 540 621 35,000  Level FlightAware ADS-B
Wed 05:23:42 PM 43.2770 -66.6770 58° Northeast 529 609 35,000  Level FlightAware ADS-B
Wed 05:24:42 PM 43.3440 -66.5070 62° Northeast 525 604 35,000  Level FlightAware ADS-B
Wed 05:25:52 PM 43.4270 -66.2930 62° Northeast 525 604 35,000  Level FlightAware ADS-B
Wed 05:27:12 PM 43.5180 -66.0560 62° Northeast 524 603 35,000  Level FlightAware ADS-B
Wed 05:28:22 PM 43.5960 -65.8500 62° Northeast 526 605 35,000  Level FlightAware ADS-B
Wed 05:29:32 PM 43.6760 -65.6410 62° Northeast 530 610 35,000  Level FlightAware ADS-B
Wed 05:30:42 PM 43.7550 -65.4310 62° Northeast 532 612 35,000  Level FlightAware ADS-B
Wed 05:31:52 PM 43.8350 -65.2160 63° Northeast 536 617 35,000  Level FlightAware ADS-B
Wed 05:33:02 PM 43.9140 -65.0030 63° Northeast 538 619 35,000  Level FlightAware ADS-B
Wed 05:34:27 PM 44.0100 -64.7420 63° Northeast 542 624 35,000  Level FlightAware ADS-B
Wed 05:35:32 PM 44.0830 -64.5410 63° Northeast 543 625 35,000  Level FlightAware ADS-B
Wed 05:36:17 PM 44.1320 -64.4030 64° Northeast 543 625 35,000  Level FlightAware ADS-B
Wed 05:36:57 PM 44.1790 -64.2730 63° Northeast 543 625 35,000  Level FlightAware ADS-B
Wed 05:37:57 PM 44.2470 -64.0840 63° Northeast 543 625 35,000  Level FlightAware ADS-B
Wed 05:38:32 PM 44.2900 -63.9640 63° Northeast 545 627 35,000  Level FlightAware ADS-B
Wed 05:39:22 PM 44.3390 -63.8240 64° Northeast 547 629 35,000  Level FlightAware ADS-B
Wed 05:40:02 PM 44.3890 -63.6820 64° Northeast 544 626 35,000  Level FlightAware ADS-B
Wed 05:40:47 PM 44.4390 -63.5410 64° Northeast 542 624 35,000  Level FlightAware ADS-B
Wed 05:41:42 PM 44.4990 -63.3680 64° Northeast 543 625 35,000  Level FlightAware ADS-B
Wed 05:42:22 PM 44.5370 -63.2600 64° Northeast 544 626 35,000  Level FlightAware ADS-B
Wed 05:43:07 PM 44.5920 -63.1020 64° Northeast 544 626 35,000  Level FlightAware ADS-B
Wed 05:43:42 PM 44.6300 -62.9900 64° Northeast 545 627 35,000  Level FlightAware ADS-B
Wed 05:44:32 PM 44.6770 -62.8550 64° Northeast 545 627 35,000  Level FlightAware ADS-B
Wed 05:45:12 PM 44.7140 -62.7460 64° Northeast 545 627 35,000  Level FlightAware ADS-B
Wed 05:45:52 PM 44.7520 -62.6380 64° Northeast 545 627 35,000  Level FlightAware ADS-B
Wed 05:46:32 PM 44.7900 -62.5290 64° Northeast 545 627 35,000  Level FlightAware ADS-B
Wed 05:47:12 PM 44.8270 -62.4210 64° Northeast 545 627 35,000  Level FlightAware ADS-B
Wed 05:48:02 PM 44.8740 -62.2850 64° Northeast 545 627 35,000  Level FlightAware ADS-B
Wed 05:48:42 PM 44.9120 -62.1760 64° Northeast 545 627 35,000  Level FlightAware ADS-B
Wed 05:49:22 PM 44.9490 -62.0670 64° Northeast 545 627 35,000  Level FlightAware ADS-B
Wed 05:50:02 PM 44.9870 -61.9580 64° Northeast 545 627 35,000  Level FlightAware ADS-B
Wed 05:50:42 PM 45.0240 -61.8490 64° Northeast 545 627 35,000  Level FlightAware ADS-B
Wed 05:51:32 PM 45.0710 -61.7130 64° Northeast 545 627 35,000  Level FlightAware ADS-B
Wed 05:52:12 PM 45.1090 -61.6040 64° Northeast 545 627 35,000  Level FlightAware ADS-B
Wed 05:52:52 PM 45.1460 -61.4950 64° Northeast 545 627 35,000  Level FlightAware ADS-B
Wed 05:54:02 PM 45.2910 -60.9850 68° East 542 624 35,000  Level FlightAware ADS-B
Wed 05:54:47 PM 45.3350 -60.8450 66° East 542 624 35,000  Level FlightAware ADS-B
Wed 05:55:27 PM 45.3780 -60.7120 65° Northeast 542 624 35,000  Level FlightAware ADS-B
Wed 05:56:07 PM 45.4180 -60.5820 66° East 542 624 35,000  Level FlightAware ADS-B
Wed 05:56:52 PM 45.4650 -60.4320 66° East 543 625 35,000  Level FlightAware ADS-B
Wed 05:57:32 PM 45.5040 -60.3050 66° East 544 626 35,000  Level FlightAware ADS-B
Wed 05:58:12 PM 45.5450 -60.1720 66° East 542 624 35,000  Level FlightAware ADS-B
Wed 05:58:57 PM 45.5890 -60.0280 66° East 542 624 35,000  Level FlightAware ADS-B
Wed 05:59:37 PM 45.6290 -59.8970 66° East 542 624 35,000  Level FlightAware ADS-B
Wed 06:00:22 PM 45.6750 -59.7460 66° East 543 625 35,000  Level FlightAware ADS-B
Wed 06:01:02 PM 45.7150 -59.6120 67° East 544 626 35,000  Level FlightAware ADS-B
Wed 06:01:47 PM 45.7580 -59.4690 67° East 547 629 35,000  Level FlightAware ADS-B
Wed 06:02:27 PM 45.7980 -59.3350 67° East 546 628 35,000  Level FlightAware ADS-B
Wed 06:03:12 PM 45.8430 -59.1830 67° East 550 633 35,000  Level FlightAware ADS-B
Wed 06:03:52 PM 45.8840 -59.0450 67° East 551 634 35,000  Level FlightAware ADS-B
Wed 06:04:37 PM 45.9270 -58.9000 67° East 549 632 35,000  Level FlightAware ADS-B
Wed 06:05:17 PM 45.9660 -58.7660 67° East 550 633 35,000  Level FlightAware ADS-B
Wed 06:06:02 PM 46.0110 -58.6110 67° East 551 634 35,000  Level FlightAware ADS-B
Wed 06:06:42 PM 46.0500 -58.4760 67° East 552 635 35,000  Level FlightAware ADS-B
Wed 06:07:22 PM 46.0890 -58.3370 68° East 552 635 35,000  Level FlightAware ADS-B
Wed 06:08:07 PM 46.1310 -58.1890 68° East 553 636 35,000  Level FlightAware ADS-B
Wed 06:08:47 PM 46.1670 -58.0610 68° East 551 634 35,000  Level FlightAware ADS-B
Wed 06:09:32 PM 46.2130 -57.9010 67° East 550 633 35,000  Level FlightAware ADS-B
Wed 06:10:22 PM 46.2570 -57.7430 68° East 550 633 35,000  Level FlightAware ADS-B
Wed 06:11:02 PM 46.2890 -57.6270 68° East 550 633 35,000  Level FlightAware ADS-B
Wed 06:11:52 PM 46.3300 -57.4820 68° East 550 633 35,000  Level FlightAware ADS-B
Wed 06:12:32 PM 46.3620 -57.3650 68° East 550 633 35,000  Level FlightAware ADS-B
Wed 06:13:12 PM 46.3950 -57.2490 68° East 550 633 35,000  Level FlightAware ADS-B
Wed 06:13:52 PM 46.4270 -57.1330 68° East 550 633 35,000  Level FlightAware ADS-B
Wed 06:14:32 PM 46.4930 -56.8810 69° East 555 639 35,000  Level FlightAware ADS-B
Wed 06:15:22 PM 46.5400 -56.7100 68° East 554 638 35,000  Level FlightAware ADS-B
Wed 06:16:02 PM 46.5750 -56.5650 71° East 557 641 35,000  Level FlightAware ADS-B
Wed 06:16:57 PM 46.6220 -56.3760 70° East 557 641 35,000  Level FlightAware ADS-B
Wed 06:17:37 PM 46.6580 -56.2320 70° East 557 641 35,000  Level FlightAware ADS-B
Wed 06:18:22 PM 46.6980 -56.0670 70° East 556 640 35,000  Level FlightAware ADS-B
Wed 06:19:02 PM 46.7350 -55.9190 70° East 556 640 35,000  Level FlightAware ADS-B
Wed 06:19:47 PM 46.7720 -55.7660 71° East 554 638 35,000  Level FlightAware ADS-B
Wed 06:20:27 PM 46.8070 -55.6220 70° East 553 636 35,000  Level FlightAware ADS-B
Wed 06:21:07 PM 46.8390 -55.4890 71° East 557 641 35,000  Level FlightAware ADS-B
Wed 06:21:52 PM 46.8790 -55.3230 71° East 555 639 35,000  Level FlightAware ADS-B
Wed 06:22:32 PM 46.9130 -55.1790 71° East 556 640 35,000  Level FlightAware ADS-B
Wed 06:23:17 PM 46.9500 -55.0240 71° East 556 640 35,000  Level FlightAware ADS-B
Wed 06:23:57 PM 46.9830 -54.8810 71° East 555 639 35,000  Level FlightAware ADS-B
Wed 06:24:42 PM 47.0220 -54.7170 71° East 556 640 35,000  Level FlightAware ADS-B
Wed 06:25:22 PM 47.0550 -54.5750 71° East 559 643 35,000  Level FlightAware ADS-B
Wed 06:26:07 PM 47.0910 -54.4180 71° East 555 639 35,000  Level FlightAware ADS-B
Wed 06:26:47 PM 47.1230 -54.2780 71° East 555 639 35,000  Level FlightAware ADS-B
Wed 06:27:27 PM 47.1550 -54.1350 72° East 554 638 35,000  Level FlightAware ADS-B
Wed 06:28:12 PM 47.1920 -53.9690 72° East 552 635 35,000  Level FlightAware ADS-B
Wed 06:28:52 PM 47.2240 -53.8270 72° East 551 634 35,000  Level FlightAware ADS-B
Wed 06:29:32 PM 47.2550 -53.6860 72° East 551 634 35,000  Level FlightAware ADS-B
Wed 06:30:17 PM 47.2900 -53.5280 72° East 549 632 35,000  Level FlightAware ADS-B
Wed 06:30:57 PM 47.3210 -53.3880 72° East 551 634 35,000  Level FlightAware ADS-B
Wed 06:31:42 PM 47.3570 -53.2210 72° East 548 631 35,000  Level FlightAware ADS-B
Wed 06:32:22 PM 47.3880 -53.0790 72° East 545 627 35,000  Level FlightAware ADS-B
Wed 06:33:07 PM 47.4210 -52.9250 72° East 547 629 35,000  Level FlightAware ADS-B
Wed 06:33:47 PM 47.4510 -52.7820 73° East 551 634 35,000  Level FlightAware ADS-B
Wed 06:34:27 PM 47.4820 -52.6370 72° East 551 634 35,000  Level FlightAware ADS-B
Wed 06:35:12 PM 47.5150 -52.4770 73° East 552 635 35,000  Level FlightAware ADS-B
Wed 06:35:52 PM 47.5460 -52.3300 73° East 557 641 35,000  Level FlightAware ADS-B
Wed 06:36:37 PM 47.5800 -52.1650 73° East 556 640 35,000  Level FlightAware ADS-B
Wed 06:37:17 PM 47.6090 -52.0210 73° East 554 638 35,000 525 Level FlightAware ADS-B
Wed 06:37:57 PM 47.6390 -51.8740 73° East 556 640 35,700 1,129 Climbing FlightAware ADS-B
Wed 06:38:42 PM 47.6710 -51.7140 73° East 554 638 36,600 918 Climbing FlightAware ADS-B
Wed 06:39:22 PM 47.7000 -51.5680 74° East 561 646 37,000 282 Climbing FlightAware ADS-B
Wed 06:40:07 PM 47.7320 -51.3970 74° East 559 643 37,000  Level FlightAware ADS-B
Wed 06:40:37 PM 47.7460 -51.2980 78° East 557 641 37,000  Level FlightAware ADS-B
Wed 06:41:27 PM 47.7760 -51.1150 76° East 554 638 37,000  Level FlightAware ADS-B
Wed 06:42:12 PM 47.8070 -50.9450 75° East 554 638 37,000  Level FlightAware ADS-B
Wed 06:42:52 PM 47.8330 -50.8030 75° East 554 638 37,000  Level FlightAware ADS-B
Wed 06:43:32 PM 47.8610 -50.6520 74° East 553 636 37,000  Level FlightAware ADS-B
Wed 06:44:17 PM 47.8930 -50.4850 74° East 551 634 37,000  Level FlightAware ADS-B
Wed 06:44:57 PM 47.9110 -50.3910 74° East 551 634 37,000  Level FlightAware ADS-B
Wed 06:45:42 PM 47.9490 -50.1820 75° East 550 633 37,000  Level FlightAware ADS-B
Wed 06:46:17 PM 47.9710 -50.0670 74° East 550 633 37,000  Level FlightAware ADS-B
Wed 06:47:07 PM 48.0010 -49.9110 74° East 550 633 37,000  Level FlightAware ADS-B
Wed 06:47:47 PM 48.0250 -49.7870 74° East 550 633 37,000  Level FlightAware ADS-B
Wed 06:48:27 PM 48.0490 -49.6630 74° East 550 633 37,000  Level FlightAware ADS-B
Wed 06:49:07 PM 48.0720 -49.5380 75° East 550 633 37,000  Level FlightAware ADS-B
Wed 06:49:47 PM 48.0960 -49.4140 74° East 550 633 37,000  Level FlightAware ADS-B
Wed 06:50:27 PM 48.1200 -49.2890 74° East 550 633 37,000  Level FlightAware ADS-B
Wed 06:51:17 PM 48.1500 -49.1330 74° East 550 633 37,000  Level FlightAware ADS-B
Wed 06:51:57 PM 48.1740 -49.0090 74° East 550 633 37,000  Level FlightAware ADS-B
Wed 06:52:37 PM 48.1970 -48.8840 75° East 550 633 37,000  Level FlightAware ADS-B
Wed 06:53:17 PM 48.2210 -48.7590 74° East 550 633 37,000  Level FlightAware ADS-B
Wed 06:54:07 PM 48.2510 -48.6030 74° East 550 633 37,000  Level FlightAware ADS-B
Wed 06:54:47 PM 48.2750 -48.4780 74° East 550 633 37,000  Level FlightAware ADS-B
Wed 06:55:27 PM 48.2990 -48.3530 74° East 550 633 37,000  Level FlightAware ADS-B
Wed 06:56:00 PM 48.4500 -47.9000 74° East 550 633 37,000  Level Gander Center
Wed 06:56:34 PM 48.4833 -47.7667 69° East 550 633 37,000  Level Gander Center
Wed 06:57:34 PM 48.5333 -47.5500 71° East 550 633 37,000  Level Gander Center
Wed 06:58:34 PM 48.5833 -47.3333 71° East 560 644 37,000  Level Gander Center
Wed 06:59:34 PM 48.6500 -47.0833 68° East 560 644 37,000  Level Gander Center
Wed 07:00:34 PM 48.6833 -46.9000 75° East 560 644 37,000  Level Gander Center
Wed 07:01:34 PM 48.7333 -46.6667 72° East 560 644 37,000  Level Gander Center
Wed 07:03:00 PM 48.8038 -46.3714 70° East  Level FlightAware Approximate
Wed 07:10:00 PM 49.1343 -44.9167 73° East  Level FlightAware Approximate
Wed 07:11:00 PM 49.1772 -44.7059 73° East  Level FlightAware Approximate
Wed 07:12:00 PM 49.2197 -44.4948 73° East  Level FlightAware Approximate
Wed 07:13:00 PM 49.2619 -44.2833 73° East  Level FlightAware Approximate
Wed 07:14:00 PM 49.3036 -44.0714 73° East  Level FlightAware Approximate
Wed 07:15:00 PM 49.3450 -43.8592 73° East  Level FlightAware Approximate
Wed 07:16:00 PM 49.3836 -43.6456 75° East  Level FlightAware Approximate
Wed 07:17:00 PM 49.4216 -43.4316 75° East  Level FlightAware Approximate
Wed 07:18:00 PM 49.4591 -43.2172 75° East  Level FlightAware Approximate
Wed 07:19:00 PM 49.4963 -43.0025 75° East  Level FlightAware Approximate
Wed 07:20:00 PM 49.5340 -42.7878 74° East  Level FlightAware Approximate
Wed 07:21:00 PM 49.5725 -42.5734 74° East  Level FlightAware Approximate
Wed 07:22:00 PM 49.6107 -42.3586 75° East  Level FlightAware Approximate
Wed 07:23:00 PM 49.6485 -42.1435 75° East  Level FlightAware Approximate
Wed 07:24:00 PM 49.6858 -41.9280 75° East  Level FlightAware Approximate
Wed 07:25:00 PM 49.7228 -41.7122 75° East  Level FlightAware Approximate
Wed 07:26:00 PM 49.7593 -41.4961 75° East  Level FlightAware Approximate
Wed 07:27:00 PM 49.7955 -41.2797 75° East  Level FlightAware Approximate
Wed 07:28:00 PM 49.8313 -41.0629 76° East  Level FlightAware Approximate
Wed 07:29:00 PM 49.8666 -40.8458 76° East  Level FlightAware Approximate
Wed 07:30:00 PM 49.9016 -40.6284 76° East  Level FlightAware Approximate
Wed 07:31:00 PM 49.9361 -40.4107 76° East  Level FlightAware Approximate
Wed 07:32:00 PM 49.9702 -40.1927 76° East  Level FlightAware Approximate
Wed 07:33:00 PM 50.0037 -39.9743 77° East  Level FlightAware Approximate
Wed 07:34:00 PM 50.0354 -39.7551 77° East  Level FlightAware Approximate
Wed 07:35:00 PM 50.0667 -39.5356 77° East  Level FlightAware Approximate
Wed 07:36:00 PM 50.0975 -39.3158 78° East  Level FlightAware Approximate
Wed 07:37:00 PM 50.1279 -39.0957 78° East  Level FlightAware Approximate
Wed 07:38:00 PM 50.1579 -38.8754 78° East  Level FlightAware Approximate
Wed 07:39:00 PM 50.1875 -38.6547 78° East  Level FlightAware Approximate
Wed 07:40:00 PM 50.2167 -38.4338 78° East  Level FlightAware Approximate
Wed 07:41:00 PM 50.2454 -38.2127 78° East  Level FlightAware Approximate
Wed 07:42:00 PM 50.2738 -37.9912 79° East  Level FlightAware Approximate
Wed 07:43:00 PM 50.3017 -37.7695 79° East  Level FlightAware Approximate
Wed 07:44:00 PM 50.3292 -37.5476 79° East  Level FlightAware Approximate
Wed 07:45:00 PM 50.3562 -37.3254 79° East  Level FlightAware Approximate
Wed 07:46:00 PM 50.3829 -37.1029 79° East  Level FlightAware Approximate
Wed 07:47:00 PM 50.4091 -36.8802 79° East  Level FlightAware Approximate
Wed 07:48:00 PM 50.4349 -36.6573 80° East  Level FlightAware Approximate
Wed 07:49:00 PM 50.4603 -36.4341 80° East  Level FlightAware Approximate
Wed 07:50:00 PM 50.4852 -36.2106 80° East  Level FlightAware Approximate
Wed 07:51:00 PM 50.5097 -35.9870 80° East  Level FlightAware Approximate
Wed 07:52:00 PM 50.5338 -35.7631 80° East  Level FlightAware Approximate
Wed 07:53:00 PM 50.5574 -35.5390 80° East  Level FlightAware Approximate
Wed 07:54:00 PM 50.5807 -35.3146 81° East  Level FlightAware Approximate
Wed 07:55:00 PM 50.6035 -35.0901 81° East  Level FlightAware Approximate
Wed 07:56:00 PM 50.6258 -34.8653 81° East  Level FlightAware Approximate
Wed 07:57:00 PM 50.6477 -34.6403 81° East  Level FlightAware Approximate
Wed 07:58:00 PM 50.6692 -34.4151 81° East  Level FlightAware Approximate
Wed 07:59:00 PM 50.6903 -34.1897 82° East  Level FlightAware Approximate
Wed 08:00:00 PM 50.7109 -33.9641 82° East  Level FlightAware Approximate
Wed 08:01:00 PM 50.7311 -33.7383 82° East  Level FlightAware Approximate
Wed 08:02:00 PM 50.7508 -33.5123 82° East  Level FlightAware Approximate
Wed 08:03:00 PM 50.7701 -33.2861 82° East  Level FlightAware Approximate
Wed 08:04:00 PM 50.7890 -33.0598 82° East  Level FlightAware Approximate
Wed 08:05:00 PM 50.8075 -32.8332 83° East  Level FlightAware Approximate
Wed 08:06:00 PM 50.8255 -32.6065 83° East  Level FlightAware Approximate
Wed 08:07:00 PM 50.8430 -32.3796 83° East  Level FlightAware Approximate
Wed 08:08:00 PM 50.8601 -32.1526 83° East  Level FlightAware Approximate
Wed 08:09:00 PM 50.8768 -31.9253 83° East  Level FlightAware Approximate
Wed 08:10:00 PM 50.8931 -31.6979 83° East  Level FlightAware Approximate
Wed 08:11:00 PM 50.9088 -31.4704 84° East  Level FlightAware Approximate
Wed 08:12:00 PM 50.9242 -31.2427 84° East  Level FlightAware Approximate
Wed 08:13:00 PM 50.9391 -31.0149 84° East  Level FlightAware Approximate
Wed 08:14:00 PM 50.9536 -30.7869 84° East  Level FlightAware Approximate
Wed 08:15:00 PM 50.9676 -30.5587 84° East  Level FlightAware Approximate
Wed 08:16:00 PM 50.9812 -30.3305 85° East  Level FlightAware Approximate
Wed 08:17:00 PM 50.9943 -30.1021 85° East  Level FlightAware Approximate
Wed 08:18:00 PM 51.0048 -29.8733 86° East  Level FlightAware Approximate
Wed 08:19:00 PM 51.0132 -29.6443 87° East  Level FlightAware Approximate
Wed 08:20:00 PM 51.0211 -29.4151 87° East  Level FlightAware Approximate
Wed 08:21:00 PM 51.0286 -29.1859 87° East  Level FlightAware Approximate
Wed 08:22:00 PM 51.0356 -28.9566 87° East  Level FlightAware Approximate
Wed 08:23:00 PM 51.0422 -28.7272 87° East  Level FlightAware Approximate
Wed 08:24:00 PM 51.0484 -28.4978 87° East  Level FlightAware Approximate
Wed 08:25:00 PM 51.0550 -28.2684 87° East  Level FlightAware Approximate
Wed 08:26:00 PM 51.0615 -28.0389 87° East  Level FlightAware Approximate
Wed 08:27:00 PM 51.0675 -27.8094 88° East  Level FlightAware Approximate
Wed 08:28:00 PM 51.0731 -27.5798 88° East  Level FlightAware Approximate
Wed 08:29:00 PM 51.0783 -27.3502 88° East  Level FlightAware Approximate
Wed 08:30:00 PM 51.0830 -27.1205 88° East  Level FlightAware Approximate
Wed 08:31:00 PM 51.0872 -26.8908 88° East  Level FlightAware Approximate
Wed 08:32:00 PM 51.0910 -26.6610 88° East  Level FlightAware Approximate
Wed 08:33:00 PM 51.0943 -26.4312 89° East  Level FlightAware Approximate
Wed 08:34:00 PM 51.0973 -26.2014 89° East  Level FlightAware Approximate
Wed 08:35:00 PM 51.0997 -25.9715 89° East  Level FlightAware Approximate
Wed 08:36:00 PM 51.1017 -25.7417 89° East  Level FlightAware Approximate
Wed 08:37:00 PM 51.1032 -25.5118 89° East  Level FlightAware Approximate
Wed 08:38:00 PM 51.1044 -25.2819 89° East  Level FlightAware Approximate
Wed 08:39:00 PM 51.1050 -25.0519 90° East  Level FlightAware Approximate
Wed 08:40:00 PM 51.1052 -24.8220 90° East  Level FlightAware Approximate
Wed 08:41:00 PM 51.1049 -24.5921 90° East  Level FlightAware Approximate
Wed 08:42:00 PM 51.1042 -24.3622 90° East  Level FlightAware Approximate
Wed 08:43:00 PM 51.1031 -24.1322 90° East  Level FlightAware Approximate
Wed 08:44:00 PM 51.1015 -23.9023 91° East  Level FlightAware Approximate
Wed 08:45:00 PM 51.0993 -23.6724 91° East  Level FlightAware Approximate
Wed 08:46:00 PM 51.0965 -23.4426 91° East  Level FlightAware Approximate
Wed 08:47:00 PM 51.0932 -23.2128 91° East  Level FlightAware Approximate
Wed 08:48:00 PM 51.0895 -22.9830 91° East  Level FlightAware Approximate
Wed 08:49:00 PM 51.0853 -22.7532 92° East  Level FlightAware Approximate
Wed 08:50:00 PM 51.0807 -22.5235 92° East  Level FlightAware Approximate
Wed 08:51:00 PM 51.0756 -22.2939 92° East  Level FlightAware Approximate
Wed 08:52:00 PM 51.0701 -22.0643 92° East  Level FlightAware Approximate
Wed 08:53:00 PM 51.0641 -21.8347 92° East  Level FlightAware Approximate
Wed 08:54:00 PM 51.0577 -21.6053 92° East  Level FlightAware Approximate
Wed 08:55:00 PM 51.0508 -21.3759 93° East  Level FlightAware Approximate
Wed 08:56:00 PM 51.0434 -21.1465 93° East  Level FlightAware Approximate
Wed 08:57:00 PM 51.0357 -20.9172 93° East  Level FlightAware Approximate
Wed 08:58:00 PM 51.0274 -20.6881 93° East  Level FlightAware Approximate
Wed 08:59:00 PM 51.0187 -20.4590 93° East  Level FlightAware Approximate
Wed 09:00:00 PM 51.0096 -20.2299 94° East  Level FlightAware Approximate
Wed 09:01:00 PM 51.0000 -20.0010 94° East  Level FlightAware Approximate
Wed 09:02:00 PM 51.0176 -19.7733 83° East  Level FlightAware Approximate
Wed 09:03:00 PM 51.0348 -19.5454 83° East  Level FlightAware Approximate
Wed 09:04:00 PM 51.0515 -19.3173 83° East  Level FlightAware Approximate
Wed 09:05:00 PM 51.0678 -19.0891 83° East  Level FlightAware Approximate
Wed 09:06:00 PM 51.0837 -18.8607 84° East  Level FlightAware Approximate
Wed 09:07:00 PM 51.0991 -18.6322 84° East  Level FlightAware Approximate
Wed 09:08:00 PM 51.1141 -18.4035 84° East  Level FlightAware Approximate
Wed 09:09:00 PM 51.1286 -18.1746 84° East  Level FlightAware Approximate
Wed 09:10:00 PM 51.1427 -17.9456 84° East  Level FlightAware Approximate
Wed 09:11:00 PM 51.1563 -17.7165 84° East  Level FlightAware Approximate
Wed 09:12:00 PM 51.1695 -17.4873 85° East  Level FlightAware Approximate
Wed 09:13:00 PM 51.1822 -17.2579 85° East  Level FlightAware Approximate
Wed 09:14:00 PM 51.1945 -17.0284 85° East  Level FlightAware Approximate
Wed 09:15:00 PM 51.2063 -16.7987 85° East  Level FlightAware Approximate
Wed 09:16:00 PM 51.2177 -16.5690 85° East  Level FlightAware Approximate
Wed 09:17:00 PM 51.2287 -16.3392 86° East  Level FlightAware Approximate
Wed 09:18:00 PM 51.2391 -16.1092 86° East  Level FlightAware Approximate
Wed 09:19:00 PM 51.2492 -15.8791 86° East  Level FlightAware Approximate
Wed 09:20:00 PM 51.2588 -15.6490 86° East  Level FlightAware Approximate
Wed 09:21:00 PM 51.2679 -15.4187 86° East  Level FlightAware Approximate
Wed 09:22:00 PM 51.2766 -15.1884 86° East  Level FlightAware Approximate
Wed 09:23:00 PM 51.2848 -14.9579 87° East  Level FlightAware Approximate
Wed 09:24:00 PM 51.2922 -14.7274 87° East  Level FlightAware Approximate
Wed 09:25:00 PM 51.2993 -14.4968 87° East  Level FlightAware Approximate
Wed 09:26:00 PM 51.3058 -14.2661 87° East  Level FlightAware Approximate
Wed 09:27:00 PM 51.3120 -14.0353 87° East  Level FlightAware Approximate
Wed 09:28:00 PM 51.3176 -13.8046 88° East  Level FlightAware Approximate
Wed 09:29:00 PM 51.3228 -13.5737 88° East  Level FlightAware Approximate
Wed 09:30:00 PM 51.3276 -13.3428 88° East  Level FlightAware Approximate
Wed 09:31:00 PM 51.3319 -13.1118 88° East  Level FlightAware Approximate
Wed 09:32:00 PM 51.3358 -12.8809 88° East  Level FlightAware Approximate
Wed 09:33:00 PM 51.3392 -12.6498 89° East  Level FlightAware Approximate
Wed 09:34:00 PM 51.3421 -12.4188 89° East  Level FlightAware Approximate
Wed 09:35:00 PM 51.3446 -12.1877 89° East  Level FlightAware Approximate
Wed 09:36:00 PM 51.3466 -11.9566 89° East  Level FlightAware Approximate
Wed 09:37:00 PM 51.3482 -11.7254 89° East  Level FlightAware Approximate
Wed 09:38:00 PM 51.3494 -11.4943 89° East  Level FlightAware Approximate
Wed 09:39:00 PM 51.3500 -11.2632 90° East  Level FlightAware Approximate
Wed 09:40:00 PM 51.3502 -11.0320 90° East  Level FlightAware Approximate
Wed 09:41:00 PM 51.3500 -10.8008 90° East  Level FlightAware Approximate
Wed 09:42:00 PM 51.3508 -10.5697 90° East  Level FlightAware Approximate
Wed 09:42:42 PM 51.2530 -10.5000 90° East 538 619 37,000  Level FlightAware ADS-B
Wed 09:43:00 PM 51.3512 -10.3385 90° East  Level FlightAware Approximate
Wed 09:43:22 PM 51.2590 -10.3450 86° East 538 619 37,000  Level FlightAware ADS-B
Wed 09:44:02 PM 51.2660 -10.1780 86° East 541 623 37,000  Level FlightAware ADS-B
Wed 09:44:47 PM 51.2730 -10.0070 86° East 543 625 37,000  Level FlightAware ADS-B
Wed 09:45:27 PM 51.2800 -9.8380 86° East 545 627 37,000  Level FlightAware ADS-B
Wed 09:46:52 PM 51.2920 -9.5010 87° East 546 628 37,000  Level FlightAware ADS-B
Wed 09:47:32 PM 51.2980 -9.3390 87° East 548 631 37,000  Level FlightAware ADS-B
Wed 09:48:17 PM 51.3040 -9.1550 87° East 550 633 37,000 -1,098 Level FlightAware ADS-B
Wed 09:48:54 PM 51.3085 -8.9874 87° East 488 562 35,500 -1,745 Descending FlightAware UK
Wed 09:49:12 PM 51.3111 -8.9144 87° East 488 562 35,400 5,000 Descending FlightAware UK
Wed 09:49:12 PM 51.3110 -8.9290 87° East 552 635 37,000  Climbing FlightAware ADS-B
Wed 09:49:30 PM 51.3133 -8.8412 87° East 490 564 35,400 -2,667 Descending FlightAware UK
Wed 09:49:48 PM 51.3155 -8.7680 87° East 490 564 35,400 4,364 Level FlightAware UK
Wed 09:49:52 PM 51.3160 -8.7650 87° East 552 635 37,000 250 Climbing FlightAware ADS-B
Wed 09:50:12 PM 51.3185 -8.6704 87° East 490 564 35,500 -2,368 Descending FlightAware UK
Wed 09:50:30 PM 51.3205 -8.5971 87° East 490 564 35,500 3,600 Level FlightAware UK
Wed 09:50:37 PM 51.3210 -8.5860 87° East 553 636 37,000 -250 Climbing FlightAware ADS-B
Wed 09:50:54 PM 51.3229 -8.4994 87° East 488 562 35,400 -2,743 Descending FlightAware UK
Wed 09:51:12 PM 51.3247 -8.4260 88° East 488 562 35,400 4,174 Level FlightAware UK
Wed 09:51:17 PM 51.3250 -8.4180 88° East 554 638 37,000  Climbing FlightAware ADS-B
Wed 09:51:36 PM 51.3271 -8.3280 88° East 488 562 35,400 -2,595 Descending FlightAware UK
Wed 09:51:54 PM 51.3288 -8.2545 88° East 490 564 35,400 4,571 Level FlightAware UK
Wed 09:51:57 PM 51.3290 -8.2560 88° East 555 639 37,000 333 Climbing FlightAware ADS-B
Wed 09:52:12 PM 51.3306 -8.1801 88° East 490 564 35,500 -2,909 Descending FlightAware UK
Wed 09:52:30 PM 51.3325 -8.1065 88° East 490 564 35,400 3,000 Descending FlightAware UK
Wed 09:52:42 PM 51.3340 -8.0690 88° East 556 640 37,000  Climbing FlightAware ADS-B
Wed 09:53:00 PM 51.3354 -7.9836 88° East 488 562 35,400 -2,667 Descending FlightAware UK
Wed 09:53:18 PM 51.3369 -7.9098 88° East 490 564 35,400 4,364 Level FlightAware UK
Wed 09:53:22 PM 51.3370 -7.9070 88° East 556 640 37,000 250 Climbing FlightAware ADS-B
Wed 09:53:42 PM 51.3390 -7.8113 88° East 492 566 35,500 -2,368 Descending FlightAware UK
Wed 09:54:00 PM 51.3405 -7.7375 88° East 488 562 35,500 3,600 Level FlightAware UK
Wed 09:54:07 PM 51.3410 -7.7210 88° East 557 641 37,000  Climbing FlightAware ADS-B
Wed 09:54:24 PM 51.3425 -7.6389 88° East 488 562 35,500 -2,571 Descending FlightAware UK
Wed 09:54:42 PM 51.3442 -7.5651 88° East 488 562 35,500 3,913 Level FlightAware UK
Wed 09:54:47 PM 51.3440 -7.5570 88° East 557 641 37,000  Climbing FlightAware ADS-B
Wed 09:55:06 PM 51.3461 -7.4666 88° East 488 562 35,500 -2,432 Descending FlightAware UK
Wed 09:55:24 PM 51.3474 -7.3927 88° East 486 559 35,500 4,286 Level FlightAware UK
Wed 09:55:27 PM 51.3470 -7.3950 88° East 558 642 37,000  Climbing FlightAware ADS-B
Wed 09:55:42 PM 51.3487 -7.3187 88° East 488 562 35,500 -2,727 Descending FlightAware UK
Wed 09:56:00 PM 51.3500 -7.2447 88° East 490 564 35,500 3,000 Level FlightAware UK
Wed 09:56:12 PM 51.3510 -7.2090 88° East 559 643 37,000  Climbing FlightAware ADS-B
Wed 09:56:30 PM 51.3519 -7.1212 88° East 492 566 35,500 -2,500 Descending FlightAware UK
Wed 09:56:48 PM 51.3533 -7.0462 88° East 490 564 35,500 4,091 Level FlightAware UK
Wed 09:56:52 PM 51.3530 -7.0450 88° East 558 642 37,000 -250 Climbing FlightAware ADS-B
Wed 09:57:12 PM 51.3546 -6.9474 88° East 488 562 35,400 -2,368 Descending FlightAware UK
Wed 09:57:30 PM 51.3554 -6.8733 89° East 488 562 35,500 3,840 Climbing FlightAware UK
Wed 09:57:37 PM 51.3560 -6.8550 89° East 559 643 37,000  Climbing FlightAware ADS-B
Wed 09:57:54 PM 51.3566 -6.7745 89° East 484 557 35,500 -2,571 Descending FlightAware UK
Wed 09:58:12 PM 51.3576 -6.7002 89° East 486 559 35,500 3,913 Level FlightAware UK
Wed 09:58:17 PM 51.3580 -6.6920 89° East 562 647 37,000  Climbing FlightAware ADS-B
Wed 09:58:36 PM 51.3589 -6.6010 89° East 484 557 35,500 -2,432 Descending FlightAware UK
Wed 09:58:54 PM 51.3597 -6.5263 89° East 488 562 35,500 4,286 Level FlightAware UK
Wed 09:58:57 PM 51.3600 -6.5240 89° East 564 649 37,000  Climbing FlightAware ADS-B
Wed 09:59:12 PM 51.3606 -6.4516 89° East 490 564 35,500 -2,727 Descending FlightAware UK
Wed 09:59:30 PM 51.3612 -6.3767 89° East 490 564 35,500  Level FlightAware UK
Wed 09:59:48 PM 51.3619 -6.3018 89° East 492 566 35,500 3,333 Level FlightAware UK
Wed 09:59:57 PM 51.3620 -6.2870 89° East 563 648 37,000  Climbing FlightAware ADS-B
Wed 10:00:12 PM 51.3623 -6.2019 89° East 490 564 35,500 -2,727 Descending FlightAware UK
Wed 10:00:30 PM 51.3628 -6.1271 89° East 488 562 35,500 3,600 Level FlightAware UK
Wed 10:00:37 PM 51.3630 -6.1110 89° East 561 646 37,000  Climbing FlightAware ADS-B
Wed 10:00:54 PM 51.3633 -6.0269 89° East 488 562 35,500 -2,571 Descending FlightAware UK
Wed 10:01:12 PM 51.3641 -5.9526 89° East 488 562 35,500 3,913 Level FlightAware UK
Wed 10:01:17 PM 51.3640 -5.9620 89° East 560 644 37,000  Climbing FlightAware ADS-B
Wed 10:01:36 PM 51.3647 -5.8536 89° East 486 559 35,500 -2,432 Descending FlightAware UK
Wed 10:01:54 PM 51.3649 -5.7794 90° East 488 562 35,500 3,462 Level FlightAware UK
Wed 10:02:02 PM 51.3650 -5.7600 90° East 560 644 37,000  Climbing FlightAware ADS-B
Wed 10:02:18 PM 51.3652 -5.6805 90° East 488 562 35,500 -2,647 Descending FlightAware UK
Wed 10:02:36 PM 51.3654 -5.6063 90° East 486 559 35,500 3,750 Level FlightAware UK
Wed 10:02:42 PM 51.3660 -5.5960 90° East 560 644 37,000 -250 Climbing FlightAware ADS-B
Wed 10:03:00 PM 51.3655 -5.5074 90° East 486 559 35,400  Descending FlightAware UK
Wed 10:03:17 PM 51.3660 -5.4500 90° East 560 644 37,000  Climbing FlightAware ADS-B
Wed 10:03:18 PM 51.3657 -5.4322 90° East 482 555 35,400 -5,053 Descending FlightAware UK
Wed 10:03:36 PM 51.3659 -5.3587 90° East 486 559 35,400  Level FlightAware UK
Wed 10:03:54 PM 51.3660 -5.2841 90° East 486 559 35,400 3,097 Level FlightAware UK
Wed 10:04:07 PM 51.3660 -5.2470 90° East 561 646 37,000 200 Climbing FlightAware ADS-B
Wed 10:04:24 PM 51.3658 -5.1592 90° East 486 559 35,500 -2,571 Descending FlightAware UK
Wed 10:04:42 PM 51.3657 -5.0847 90° East 484 557 35,500 4,091 Level FlightAware UK
Wed 10:04:46 PM 51.3658 -5.0702 90° East 561 646 37,000 -250 Climbing FlightAware ADS-B
Wed 10:05:06 PM 51.3655 -4.9853 90° East 482 555 35,400 -2,462 Descending FlightAware UK
Wed 10:05:25 PM 51.3654 -4.9099 90° East 486 559 35,400 3,692 Level FlightAware UK
Wed 10:05:32 PM 51.3650 -4.9060 90° East 562 647 37,000 6,400 Climbing FlightAware ADS-B
Wed 10:05:40 PM 51.3652 -4.8459 90° East 562 647 37,000 -3,310 Level FlightAware ADS-B
Wed 10:06:01 PM 51.3647 -4.7605 90° East 484 557 35,400  Descending FlightAware UK
Wed 10:06:12 PM 51.3650 -4.7350 90° East 562 647 37,000 4,800 Climbing FlightAware ADS-B
Wed 10:06:21 PM 51.3644 -4.6753 91° East 562 647 37,000 -3,840 Level FlightAware ADS-B
Wed 10:06:37 PM 51.3638 -4.6105 91° East 480 552 35,400 -2,647 Descending FlightAware UK
Wed 10:06:55 PM 51.3633 -4.5368 90° East 480 552 35,500 4,571 Climbing FlightAware UK
Wed 10:06:58 PM 51.3635 -4.5218 90° East 564 649 37,000 -333 Climbing FlightAware ADS-B
Wed 10:07:13 PM 51.3629 -4.4612 90° East 484 557 35,400 -2,909 Descending FlightAware UK
Wed 10:07:31 PM 51.3624 -4.3864 91° East 486 559 35,400 4,000 Level FlightAware UK
Wed 10:07:37 PM 51.3630 -4.3970 91° East 565 650 37,000 250 Climbing FlightAware ADS-B
Wed 10:07:55 PM 51.3618 -4.2856 91° East 482 555 35,500 -2,500 Descending FlightAware UK
Wed 10:08:13 PM 51.3611 -4.2113 91° East 486 559 35,500 4,091 Level FlightAware UK
Wed 10:08:17 PM 51.3610 -4.2160 91° East 567 652 37,000  Climbing FlightAware ADS-B
Wed 10:08:37 PM 51.3601 -4.1101 91° East 484 557 35,500 -2,368 Descending FlightAware UK
Wed 10:08:55 PM 51.3592 -4.0349 91° East 488 562 35,500 3,600 Level FlightAware UK
Wed 10:09:02 PM 51.3590 -4.0300 91° East 566 651 37,000 3,750 Climbing FlightAware ADS-B
Wed 10:09:19 PM 51.3582 -3.9365 91° East 565 650 37,000 -2,743 Level FlightAware ADS-B
Wed 10:09:37 PM 51.3570 -3.8588 91° East 490 564 35,400  Descending FlightAware UK
Wed 10:09:49 PM 51.3566 -3.8097 91° East 563 648 37,000  Climbing FlightAware ADS-B
Wed 10:10:07 PM 51.3556 -3.7334 91° East 486 559 35,400  Descending FlightAware UK
Wed 10:10:21 PM 51.3548 -3.6782 91° East 563 648 37,000 194 Climbing FlightAware ADS-B
Wed 10:10:38 PM 51.3538 -3.6082 91° East 478 550 35,500  Descending FlightAware UK
Wed 10:10:51 PM 51.3530 -3.5522 91° East 566 651 37,000  Climbing FlightAware ADS-B
Wed 10:11:07 PM 51.3519 -3.4851 91° East 480 552 35,500  Descending FlightAware UK
Wed 10:11:23 PM 51.3508 -3.4189 91° East 567 652 37,000 -167 Climbing FlightAware ADS-B
Wed 10:11:43 PM 51.3494 -3.3339 91° East 484 557 35,400  Descending FlightAware UK
Wed 10:11:54 PM 51.3486 -3.2882 91° East 568 654 37,000  Climbing FlightAware ADS-B
Wed 10:12:13 PM 51.3473 -3.2097 91° East 484 557 35,400  Descending FlightAware UK
Wed 10:12:25 PM 51.3465 -3.1592 91° East 569 655 37,000  Climbing FlightAware ADS-B
Wed 10:12:43 PM 51.3449 -3.0821 91° East 488 562 35,400  Descending FlightAware UK
Wed 10:12:56 PM 51.3440 -3.0316 91° East 567 652 37,000 194 Climbing FlightAware ADS-B
Wed 10:13:14 PM 51.3424 -2.9557 91° East 486 559 35,500  Descending FlightAware UK
Wed 10:13:27 PM 51.3414 -2.9016 91° East 567 652 37,000  Climbing FlightAware ADS-B
Wed 10:13:43 PM 51.3399 -2.8312 91° East 482 555 35,500  Descending FlightAware UK
Wed 10:13:57 PM 51.3390 -2.7930 91° East 565 650 37,000 5,294 Climbing FlightAware ADS-B
Wed 10:14:00 PM 51.3386 -2.7642 91° East 565 650 37,000 -4,174 Level FlightAware ADS-B
Wed 10:14:20 PM 51.3367 -2.6788 91° East 480 552 35,400  Descending FlightAware UK
Wed 10:14:30 PM 51.3358 -2.6382 91° East 567 652 37,000 200 Climbing FlightAware ADS-B
Wed 10:14:50 PM 51.3337 -2.5547 91° East 480 552 35,500  Descending FlightAware UK
Wed 10:15:01 PM 51.3328 -2.5103 91° East 567 652 37,000 -200 Climbing FlightAware ADS-B
Wed 10:15:20 PM 51.3308 -2.4294 91° East 476 548 35,400  Descending FlightAware UK
Wed 10:15:31 PM 51.3297 -2.3845 91° East 567 652 37,000 200 Climbing FlightAware ADS-B
Wed 10:15:50 PM 51.3275 -2.3040 91° East 484 557 35,500  Descending FlightAware UK
Wed 10:16:01 PM 51.3265 -2.2588 91° East 567 652 37,000 -200 Climbing FlightAware ADS-B
Wed 10:16:20 PM 51.3244 -2.1794 91° East 482 555 35,400  Descending FlightAware UK
Wed 10:16:31 PM 51.3231 -2.1316 91° East 566 651 37,000  Climbing FlightAware ADS-B
Wed 10:16:50 PM 51.3209 -2.0545 91° East 482 555 35,400  Descending FlightAware UK
Wed 10:17:01 PM 51.3197 -2.0067 91° East 567 652 37,000  Climbing FlightAware ADS-B
Wed 10:17:20 PM 51.3174 -1.9288 91° East 478 550 35,400  Descending FlightAware UK
Wed 10:17:32 PM 51.3160 -1.8797 91° East 566 651 37,000 200 Climbing FlightAware ADS-B
Wed 10:17:50 PM 51.3136 -1.8031 91° East 478 550 35,500  Descending FlightAware UK
Wed 10:18:02 PM 51.3122 -1.7529 91° East 565 650 37,000 -200 Climbing FlightAware ADS-B
Wed 10:18:20 PM 51.3099 -1.6785 91° East 478 550 35,400  Descending FlightAware UK
Wed 10:18:33 PM 51.3083 -1.6267 91° East 564 649 37,000  Climbing FlightAware ADS-B
Wed 10:18:50 PM 51.3059 -1.5540 91° East 478 550 35,400  Descending FlightAware UK
Wed 10:19:03 PM 51.3042 -1.5006 91° East 565 650 37,000  Climbing FlightAware ADS-B
Wed 10:19:20 PM 51.3018 -1.4296 91° East 482 555 35,400  Descending FlightAware UK
Wed 10:19:34 PM 51.3001 -1.3729 91° East 564 649 37,000  Climbing FlightAware ADS-B
Wed 10:19:50 PM 51.2977 -1.3037 91° East 478 550 35,400  Descending FlightAware UK
Wed 10:20:04 PM 51.2959 -1.2484 91° East 563 648 37,000 200 Climbing FlightAware ADS-B
Wed 10:20:20 PM 51.2934 -1.1806 91° East 480 552 35,500  Descending FlightAware UK
Wed 10:20:34 PM 51.2914 -1.1240 91° East 561 646 37,000  Climbing FlightAware ADS-B
Wed 10:20:50 PM 51.2889 -1.0568 91° East 480 552 35,500  Descending FlightAware UK
Wed 10:21:04 PM 51.2869 -0.9998 91° East 559 643 37,000  Climbing FlightAware ADS-B
Wed 10:21:20 PM 51.2843 -0.9336 91° East 480 552 35,500  Descending FlightAware UK
Wed 10:21:35 PM 51.2823 -0.8756 91° East 558 642 37,000  Climbing FlightAware ADS-B
Wed 10:21:50 PM 51.2797 -0.8108 91° East 478 550 35,500  Descending FlightAware UK
Wed 10:22:05 PM 51.2775 -0.7504 91° East 557 641 37,000  Climbing FlightAware ADS-B
Wed 10:22:20 PM 51.2750 -0.6891 91° East 480 552 35,500  Descending FlightAware UK
Wed 10:22:35 PM 51.2726 -0.6274 91° East 555 639 37,000  Climbing FlightAware ADS-B
Wed 10:22:50 PM 51.2703 -0.5683 91° East 480 552 35,500  Descending FlightAware UK
Wed 10:23:06 PM 51.2676 -0.5042 91° East 553 636 37,000 -162 Climbing FlightAware ADS-B
Wed 10:23:27 PM 51.2639 -0.4182 91° East 478 550 35,400  Descending FlightAware UK
Wed 10:23:36 PM 51.2624 -0.3806 91° East 551 634 37,000  Climbing FlightAware ADS-B
Wed 10:23:56 PM 51.2588 -0.2994 91° East 476 548 35,400  Descending FlightAware UK
Wed 10:24:06 PM 51.2572 -0.2586 91° East 550 633 37,000 200 Climbing FlightAware ADS-B
Wed 10:24:26 PM 51.2537 -0.1788 91° East 476 548 35,500  Descending FlightAware UK
Wed 10:24:37 PM 51.2519 -0.1365 91° East 548 631 37,000  Climbing FlightAware ADS-B
Wed 10:24:56 PM 51.2484 -0.0569 91° East 474 545 35,500  Descending FlightAware UK
Wed 10:25:07 PM 51.2464 -0.0143 91° East 547 629 37,000  Climbing FlightAware ADS-B
Wed 10:25:26 PM 51.2428 0.0636 91° East 476 548 35,500  Descending FlightAware UK
Wed 10:25:38 PM 51.2408 0.1082 91° East 548 631 37,000 -194 Climbing FlightAware ADS-B
Wed 10:25:57 PM 51.2371 0.1857 91° East 478 550 35,400  Descending FlightAware UK
Wed 10:26:08 PM 51.2352 0.2292 91° East 546 628 37,000 200 Climbing FlightAware ADS-B
Wed 10:26:27 PM 51.2315 0.3056 91° East 476 548 35,500  Descending FlightAware UK
Wed 10:26:38 PM 51.2294 0.3490 91° East 544 626 37,000  Climbing FlightAware ADS-B
Wed 10:26:56 PM 51.2257 0.4243 91° East 476 548 35,500  Descending FlightAware UK
Wed 10:27:08 PM 51.2234 0.4708 91° East 544 626 37,000  Climbing FlightAware ADS-B
Wed 10:27:27 PM 51.2198 0.5445 91° East 474 545 35,500  Descending FlightAware UK
Wed 10:27:39 PM 51.2174 0.5913 91° East 543 625 37,000  Climbing FlightAware ADS-B
Wed 10:27:57 PM 51.2137 0.6637 91° East 474 545 35,500  Descending FlightAware UK
Wed 10:28:09 PM 51.2112 0.7124 91° East 542 624 37,000 -200 Climbing FlightAware ADS-B
Wed 10:28:27 PM 51.2075 0.7835 91° East 474 545 35,400  Descending FlightAware UK
Wed 10:28:40 PM 51.2049 0.8337 91° East 541 623 37,000  Climbing FlightAware ADS-B
Wed 10:28:57 PM 51.2011 0.9038 91° East 474 545 35,400  Descending FlightAware UK
Wed 10:29:10 PM 51.1984 0.9555 91° East 540 621 37,000 200 Climbing FlightAware ADS-B
Wed 10:29:27 PM 51.1949 1.0207 91° East 474 545 35,500  Descending FlightAware UK
Wed 10:29:41 PM 51.1918 1.0764 91° East 540 621 37,000  Climbing FlightAware ADS-B
Wed 10:29:57 PM 51.1884 1.1392 91° East 476 548 35,500  Descending FlightAware UK
Wed 10:30:11 PM 51.1853 1.1951 91° East 539 620 37,000  Climbing FlightAware ADS-B
Wed 10:30:27 PM 51.1817 1.2583 91° East 474 545 35,500  Descending FlightAware UK
Wed 10:30:43 PM 51.1783 1.3203 91° East 537 618 37,000  Climbing FlightAware ADS-B
Wed 10:31:04 PM 51.1736 1.4021 91° East 472 543 35,500 -2,368 Descending FlightAware UK
Wed 10:31:21 PM 51.1697 1.4711 95° East 468 539 35,500 4,500 Level FlightAware UK
Wed 10:31:24 PM 51.1691 1.4794 95° East 536 617 37,000  Climbing FlightAware ADS-B
Wed 10:31:40 PM 51.1654 1.5430 95° East 470 541 35,500 -2,909 Descending FlightAware UK
Wed 10:31:57 PM 51.1613 1.6119 95° East 470 541 35,400 3,000 Descending FlightAware UK
Wed 10:32:10 PM 51.1583 1.6615 95° East 535 616 37,000  Climbing FlightAware ADS-B
Wed 10:32:27 PM 51.1543 1.7293 95° East 470 541 35,400  Descending FlightAware UK
Wed 10:32:42 PM 51.1508 1.7864 95° East 535 616 37,000  Climbing FlightAware ADS-B
Wed 10:32:57 PM 51.1472 1.8450 95° East 476 548 35,400  Descending FlightAware UK
Wed 10:33:13 PM 51.1434 1.9070 95° East 534 615 37,000 167 Climbing FlightAware ADS-B
Wed 10:33:33 PM 51.1383 1.9871 95° East 472 543 35,500  Descending FlightAware UK
Wed 10:33:46 PM 51.1354 2.0346 95° East 533 613 37,000  Climbing FlightAware ADS-B
Wed 10:34:03 PM 51.1310 2.1045 95° East 474 545 35,500  Descending FlightAware UK
Wed 10:34:16 PM 51.1278 2.1543 95° East 533 613 37,000  Climbing FlightAware ADS-B
Wed 10:34:33 PM 51.1236 2.2210 95° East 476 548 35,500  Descending FlightAware UK
Wed 10:34:47 PM 51.1201 2.2721 95° East 540 621 37,000  Climbing FlightAware ADS-B
Wed 10:35:04 PM 51.1146 2.3404 95° East 486 559 35,500  Descending FlightAware UK
Wed 10:35:04 PM 51.1138 2.3421 95° East 536 617 37,000 -333 Climbing FlightAware ADS-B
Wed 10:35:22 PM 51.1033 2.4076 95° East 490 564 35,400  Descending FlightAware UK
Wed 10:35:35 PM 51.0950 2.4584 95° East 531 611 37,000  Climbing FlightAware ADS-B
Wed 10:35:52 PM 51.0844 2.5211 95° East 488 562 35,400  Descending FlightAware UK
Wed 10:36:06 PM 51.0756 2.5732 95° East 530 610 37,000 200 Climbing FlightAware ADS-B
Wed 10:36:22 PM 51.0655 2.6328 95° East 486 559 35,500 -2,909 Descending FlightAware UK
Wed 10:36:39 PM 51.0545 2.6997 105° East 486 559 35,400 2,571 Descending FlightAware UK
Wed 10:36:57 PM 51.0460 2.7540 104° East 530 610 37,000  Climbing FlightAware ADS-B
Wed 10:36:58 PM 51.0434 2.7681 104° East 486 559 35,400 -5,333 Descending FlightAware UK
Wed 10:37:15 PM 51.0321 2.8349 104° East 486 559 35,400  Level FlightAware UK
Wed 10:37:34 PM 51.0203 2.9038 105° East 486 559 35,400 3,000 Level FlightAware UK
Wed 10:37:47 PM 51.0130 2.9470 105° East 530 610 37,000  Climbing FlightAware ADS-B
Wed 10:38:04 PM 51.0012 3.0161 105° East 484 557 35,400 -2,743 Descending FlightAware UK
Wed 10:38:22 PM 50.9898 3.0835 105° East 486 559 35,400 4,174 Level FlightAware UK
Wed 10:38:27 PM 50.9880 3.0940 105° East 530 610 37,000  Climbing FlightAware ADS-B
Wed 10:38:46 PM 50.9747 3.1743 105° East 484 557 35,400 -2,595 Descending FlightAware UK
Wed 10:39:04 PM 50.9636 3.2411 105° East 486 559 35,400 4,571 Level FlightAware UK
Wed 10:39:07 PM 50.9630 3.2430 105° East 530 610 37,000  Climbing FlightAware ADS-B
Wed 10:39:22 PM 50.9523 3.3094 105° East 486 559 35,400 -2,909 Descending FlightAware UK
Wed 10:39:40 PM 50.9406 3.3785 105° East 488 562 35,400 3,200 Level FlightAware UK
Wed 10:39:52 PM 50.9350 3.4140 105° East 530 610 37,000  Climbing FlightAware ADS-B
Wed 10:40:11 PM 50.9214 3.4916 105° East 488 562 35,400 -2,667 Descending FlightAware UK
Wed 10:40:28 PM 50.9100 3.5574 105° East 486 559 35,400 4,571 Level FlightAware UK
Wed 10:40:32 PM 50.9100 3.5580 105° East 529 609 37,000  Climbing FlightAware ADS-B
Wed 10:40:52 PM 50.8944 3.6475 105° East 486 559 35,400 -2,462 Descending FlightAware UK
Wed 10:41:11 PM 50.8827 3.7152 105° East 486 559 35,400 3,840 Level FlightAware UK
Wed 10:41:17 PM 50.8790 3.7340 105° East 527 606 37,000  Climbing FlightAware ADS-B
Wed 10:41:35 PM 50.8673 3.8051 105° East 484 557 35,400 -2,667 Descending FlightAware UK
Wed 10:41:53 PM 50.8556 3.8719 105° East 484 557 35,400 4,364 Level FlightAware UK
Wed 10:41:57 PM 50.8530 3.8830 105° East 527 606 37,000  Climbing FlightAware ADS-B
Wed 10:42:17 PM 50.8398 3.9607 105° East 484 557 35,400 -2,526 Descending FlightAware UK
Wed 10:42:35 PM 50.8280 4.0273 106° East 486 559 35,400 4,800 Level FlightAware UK
Wed 10:42:37 PM 50.8280 4.0270 106° East 527 606 37,000  Climbing FlightAware ADS-B
Wed 10:42:53 PM 50.8159 4.0936 106° East 486 559 35,400 -2,824 Descending FlightAware UK
Wed 10:43:11 PM 50.8040 4.1600 106° East 486 559 35,400 3,310 Level FlightAware UK
Wed 10:43:22 PM 50.7980 4.1960 106° East 525 604 37,000  Climbing FlightAware ADS-B
Wed 10:43:41 PM 50.7842 4.2705 106° East 486 559 35,400 -2,595 Descending FlightAware UK
Wed 10:43:59 PM 50.7726 4.3376 105° East 486 559 35,400 4,571 Level FlightAware UK
Wed 10:44:02 PM 50.7720 4.3400 105° East 525 604 37,000 -667 Climbing FlightAware ADS-B
Wed 10:44:17 PM 50.7608 4.4031 105° East 492 566 35,200 -3,938 Descending FlightAware UK
Wed 10:44:34 PM 50.7488 4.4680 106° East 496 571 34,900 2,000 Descending FlightAware UK
Wed 10:44:47 PM 50.7410 4.5090 106° East 530 610 36,200 -968 Climbing FlightAware ADS-B
Wed 10:45:05 PM 50.7274 4.5806 106° East 492 566 34,400 -3,500 Descending FlightAware UK
Wed 10:45:23 PM 50.7146 4.6460 107° East 492 566 34,100 3,273 Descending FlightAware UK
Wed 10:45:27 PM 50.7140 4.6590 107° East 532 612 35,600 1,227 Climbing FlightAware ADS-B
Wed 10:46:07 PM 50.6870 4.8040 106° East 534 615 35,000 -988 Descending FlightAware ADS-B
Wed 10:46:52 PM 50.6570 4.9680 106° East 534 615 34,200 -1,059 Descending FlightAware ADS-B
Wed 10:47:32 PM 50.6280 5.1180 107° East 540 621 33,500 -1,275 Descending FlightAware ADS-B
Wed 10:48:12 PM 50.6000 5.2680 106° East 542 624 32,500 -1,482 Descending FlightAware ADS-B
Wed 10:48:57 PM 50.5670 5.4430 106° East 540 621 31,400 -1,271 Descending FlightAware ADS-B
Wed 10:49:37 PM 50.5380 5.5920 107° East 541 623 30,700 -1,125 Descending FlightAware ADS-B
Wed 10:50:17 PM 50.5110 5.7310 107° East 545 627 29,900 -1,129 Descending FlightAware ADS-B
Wed 10:51:02 PM 50.4770 5.9040 107° East 550 633 29,100 -635 Descending FlightAware ADS-B
Wed 10:51:42 PM 50.4480 6.0550 107° East 550 633 29,000 -282 Descending FlightAware ADS-B
Wed 10:52:27 PM 50.4130 6.2280 108° East 540 621 28,700 -706 Descending FlightAware ADS-B
Wed 10:53:07 PM 50.3840 6.3730 107° East 525 604 28,000 -1,200 Descending FlightAware ADS-B
Wed 10:53:47 PM 50.3560 6.5150 107° East 507 583 27,100 -1,976 Descending FlightAware ADS-B
Wed 10:54:32 PM 50.3230 6.6760 108° East 495 570 25,200 -2,471 Descending FlightAware ADS-B
Wed 10:55:12 PM 50.2950 6.8100 108° East 485 558 23,600 -2,541 Descending FlightAware ADS-B
Wed 10:55:57 PM 50.2640 6.9610 108° East 471 542 21,600 -2,471 Descending FlightAware ADS-B
Wed 10:56:37 PM 50.2390 7.0820 108° East 459 528 20,100 -2,400 Descending FlightAware ADS-B
Wed 10:57:17 PM 50.2120 7.2120 108° East 447 514 18,400 -2,471 Descending FlightAware ADS-B
Wed 10:58:02 PM 50.1840 7.3440 108° East 439 505 16,600 -2,471 Descending FlightAware ADS-B
Wed 10:58:42 PM 50.1580 7.4650 108° East 433 498 14,900 -2,400 Descending FlightAware ADS-B
Wed 10:59:27 PM 50.1300 7.5990 108° East 422 486 13,200 -1,341 Descending FlightAware ADS-B
Wed 11:00:07 PM 50.1060 7.7100 109° East 380 437 13,000 -150 Descending FlightAware ADS-B
Wed 11:00:47 PM 50.0860 7.8140 107° East 365 420 13,000  Level FlightAware ADS-B
Wed 11:01:32 PM 50.0640 7.9260 107° East 365 420 13,000  Level FlightAware ADS-B
Wed 11:02:12 PM 50.0440 8.0250 107° East 362 417 13,000  Level FlightAware ADS-B
Wed 11:02:57 PM 50.0210 8.1380 108° East 360 414 13,000  Level FlightAware ADS-B
Wed 11:03:37 PM 50.0020 8.2330 107° East 358 412 13,000  Level FlightAware ADS-B
Wed 11:04:17 PM 49.9810 8.3350 108° East 346 398 13,000 -424 Level FlightAware ADS-B
Wed 11:05:02 PM 49.9600 8.4370 108° East 323 372 12,400 -706 Descending FlightAware ADS-B
Wed 11:05:42 PM 49.9440 8.5240 106° East 307 353 12,000 -686 Descending FlightAware ADS-B
Wed 11:06:12 PM 49.9500 8.5850 81° East 303 349 11,600 -1,029 Descending FlightAware ADS-B
Wed 11:06:52 PM 49.9710 8.6700 69° East 296 341 10,800 -1,125 Descending FlightAware ADS-B
Wed 11:07:32 PM 49.9890 8.7460 70° East 293 337 10,100 -1,133 Descending FlightAware ADS-B
Wed 11:08:22 PM 50.0130 8.8480 70° East 294 338 9,100 -1,120 Descending FlightAware ADS-B
Wed 11:08:47 PM 50.0250 8.8970 69° East 290 334 8,700 -873 Descending FlightAware ADS-B
Wed 11:09:17 PM 50.0380 8.9520 70° East 294 338 8,300 -933 Descending FlightAware ADS-B
Wed 11:09:32 PM 50.0450 8.9810 69° East 291 335 8,000 -450 Descending FlightAware ADS-B
Wed 11:09:57 PM 50.0560 9.0290 70° East 287 330 8,000  Level FlightAware ADS-B
Wed 11:10:27 PM 50.0700 9.0890 70° East 291 335 8,000 -218 Level FlightAware ADS-B
Wed 11:10:52 PM 50.0800 9.1320 70° East 284 327 7,800 -655 Descending FlightAware ADS-B
Wed 11:11:22 PM 50.0940 9.1920 70° East 280 322 7,400 -900 Descending FlightAware ADS-B
Wed 11:11:52 PM 50.1110 9.2460 64° Northeast 278 320 6,900 -1,050 Descending FlightAware ADS-B
Wed 11:12:02 PM 50.1210 9.2580 38° Northeast 286 329 6,700 -960 Descending FlightAware ADS-B
Wed 11:12:17 PM 50.1410 9.2660 14° North 272 313 6,500 -800 Descending FlightAware ADS-B
Wed 11:12:47 PM 50.1720 9.2420 334° Northwest 237 273 6,100 -800 Descending FlightAware ADS-B
Wed 11:13:02 PM 50.1780 9.2190 292° West 227 261 5,900 -655 Descending FlightAware ADS-B
Wed 11:13:42 PM 50.1720 9.1570 261° West 217 250 5,500 -554 Descending FlightAware ADS-B
Wed 11:14:07 PM 50.1660 9.1180 257° West 219 252 5,300 -545 Descending FlightAware ADS-B
Wed 11:14:37 PM 50.1560 9.0750 250° West 219 252 5,000 -655 Descending FlightAware ADS-B
Wed 11:15:02 PM 50.1460 9.0370 248° West 216 249 4,700 -764 Descending FlightAware ADS-B
Wed 11:15:32 PM 50.1370 8.9950 252° West 215 247 4,300 -600 Descending FlightAware ADS-B
Wed 11:16:02 PM 50.1260 8.9490 250° West 211 243 4,100 -533 Descending FlightAware ADS-B
Wed 11:16:17 PM 50.1210 8.9280 250° West 209 241 3,900 -300 Descending FlightAware ADS-B
Wed 11:16:42 PM 50.1130 8.8930 250° West 196 226 3,900  Level FlightAware ADS-B
Wed 11:17:12 PM 50.1040 8.8560 249° West 171 197 3,900 -327 Level FlightAware ADS-B
Wed 11:17:37 PM 50.0970 8.8280 249° West 159 183 3,600 -873 Descending FlightAware ADS-B
Wed 11:18:07 PM 50.0900 8.7970 251° West 153 176 3,100 -900 Descending FlightAware ADS-B
Wed 11:18:37 PM 50.0830 8.7650 251° West 154 177 2,700 -764 Descending FlightAware ADS-B
Wed 11:19:02 PM 50.0760 8.7380 248° West 152 175 2,400 -750 Descending FlightAware ADS-B
Wed 11:19:17 PM 50.0730 8.7240 252° West 147 169 2,200 -800 Descending FlightAware ADS-B
Wed 11:19:47 PM 50.0660 8.6960 249° West 136 157 1,800 -764 Descending FlightAware ADS-B
Wed 11:20:12 PM 50.0610 8.6720 252° West 136 157 1,500 -655 Descending FlightAware ADS-B
Wed 11:20:42 PM 50.0540 8.6450 248° West 141 162 1,200 -764 Descending FlightAware ADS-B
Wed 11:21:07 PM 50.0480 8.6210 249° West 145 167 800 -554 Descending FlightAware ADS-B
Wed 11:21:47 PM 50.0390 8.5810 251° West 148 170 600 -300 Descending FlightAware ADS-B
Wed 11:24:00 PM 50.0167 8.5667 111° Southeast  Level FlightAware Approximate
Wed 11:25:00 PM 50.0264 8.5431 111° Southeast  Level Estimated

Login

Don't have an account? Register now (free) for customized features, flight alerts, and more!